createdAt,value
2023-02-16T00:00:42.321Z,37.90
2023-02-16T00:03:22.707Z,40.58
2023-02-16T00:05:50.529Z,43.60
2023-02-16T00:08:17.796Z,42.28
2023-02-16T00:11:05.347Z,37.75
2023-02-16T00:13:44.913Z,39.65
2023-02-16T00:16:23.466Z,41.50
2023-02-16T00:18:51.107Z,38.53
2023-02-16T00:21:19.019Z,40.22
2023-02-16T00:23:46.792Z,39.88
2023-02-16T00:26:16.480Z,32.70
2023-02-16T00:28:44.055Z,39.75
2023-02-16T00:31:20.832Z,42.38
2023-02-16T00:33:48.263Z,32.28
2023-02-16T00:36:15.583Z,28.63
2023-02-16T00:38:43.036Z,35.38
2023-02-16T00:41:36.762Z,32.72
2023-02-16T00:44:04.319Z,36.65
2023-02-16T00:46:31.682Z,35.75
2023-02-16T00:48:58.505Z,36.33
2023-02-16T00:51:26.573Z,29.63
2023-02-16T00:53:54.050Z,36.90
2023-02-16T00:56:21.599Z,31.50
2023-02-16T00:58:51.958Z,38.08
2023-02-16T01:01:21.700Z,39.30
2023-02-16T01:03:49.197Z,37.85
2023-02-16T01:06:35.971Z,36.92
2023-02-16T01:09:35.658Z,35.80
2023-02-16T01:12:05.186Z,34.17
2023-02-16T01:14:33.591Z,38.95
2023-02-16T01:17:00.809Z,41.33
2023-02-16T01:19:27.638Z,39.40
2023-02-16T01:21:54.831Z,35.33
2023-02-16T01:24:21.670Z,35.17
2023-02-16T01:26:50.567Z,38.38
2023-02-16T01:29:19.901Z,42.60
2023-02-16T01:31:47.190Z,33.80
2023-02-16T01:34:15.227Z,40.78
2023-02-16T01:36:47.741Z,38.72
2023-02-16T01:39:20.100Z,36.28
2023-02-16T01:41:47.317Z,40.20
2023-02-16T01:44:29.815Z,40.47
2023-02-16T01:47:15.402Z,43.08
2023-02-16T01:49:42.251Z,41.75
2023-02-16T01:52:33.988Z,38.67
2023-02-16T01:55:04.540Z,46.60
2023-02-16T01:57:46.248Z,40.72
2023-02-16T02:00:25.136Z,38.58
2023-02-16T02:03:20.281Z,38.22
2023-02-16T02:05:48.682Z,43.67
2023-02-16T02:08:30.511Z,36.38
2023-02-16T02:11:16.294Z,43.97
2023-02-16T02:14:30.033Z,38.80
2023-02-16T02:17:04.113Z,38.70
2023-02-16T02:19:37.417Z,42.83
2023-02-16T02:22:58.014Z,46.25
2023-02-16T02:25:27.663Z,41.92
2023-02-16T02:27:57.942Z,44.28
2023-02-16T02:30:41.476Z,36.15
2023-02-16T02:33:26.156Z,49.50
2023-02-16T02:36:08.620Z,44.80
2023-02-16T02:39:01.140Z,43.70
2023-02-16T02:42:06.567Z,40.72
2023-02-16T02:45:10.150Z,51.25
2023-02-16T02:47:42.216Z,42.05
2023-02-16T02:50:36.796Z,41.10
2023-02-16T02:53:13.108Z,45.58
2023-02-16T02:56:08.860Z,46.65
2023-02-16T02:58:55.986Z,51.17
2023-02-16T03:01:24.081Z,47.08
2023-02-16T03:03:55.325Z,46.42
2023-02-16T03:06:27.499Z,55.08
2023-02-16T03:09:00.457Z,47.57
2023-02-16T03:14:18.300Z,42.30
2023-02-16T03:16:49.579Z,52.88
2023-02-16T03:19:37.191Z,53.58
2023-02-16T03:22:23.837Z,49.55
2023-02-16T03:25:09.058Z,49.67
2023-02-16T03:27:58.081Z,55.13
2023-02-16T03:30:27.175Z,51.13
2023-02-16T03:32:54.867Z,55.15
2023-02-16T03:35:22.357Z,55.95
2023-02-16T03:37:49.430Z,50.85
2023-02-16T03:40:29.977Z,54.20
2023-02-16T03:43:00.655Z,47.08
2023-02-16T03:45:28.406Z,47.88
2023-02-16T03:47:55.599Z,48.78
2023-02-16T03:50:22.919Z,55.15
2023-02-16T03:52:50.329Z,51.75
2023-02-16T03:55:17.348Z,54.42
2023-02-16T03:57:44.177Z,60.40
2023-02-16T04:00:11.671Z,41.92
2023-02-16T04:02:38.914Z,58.17
2023-02-16T04:05:06.017Z,58.88
2023-02-16T04:07:33.237Z,50.25
2023-02-16T04:10:00.517Z,58.85
2023-02-16T04:12:37.098Z,60.50
2023-02-16T04:15:09.964Z,58.42
2023-02-16T04:17:37.396Z,59.55
2023-02-16T04:20:05.585Z,58.63
2023-02-16T04:22:32.869Z,55.05
2023-02-16T04:25:00.116Z,56.58
2023-02-16T04:27:27.340Z,60.35
2023-02-16T04:29:54.611Z,58.38
2023-02-16T04:32:21.467Z,55.50
2023-02-16T04:34:48.687Z,61.05
2023-02-16T04:37:16.020Z,57.35
2023-02-16T04:39:43.289Z,57.85
2023-02-16T04:42:10.162Z,48.78
2023-02-16T04:44:37.456Z,51.95
2023-02-16T04:47:04.534Z,55.33
2023-02-16T04:49:31.357Z,54.45
2023-02-16T04:51:58.660Z,58.60
2023-02-16T04:54:25.858Z,61.85
2023-02-16T04:56:53.149Z,61.38
2023-02-16T04:59:20.708Z,55.95
2023-02-16T05:01:47.694Z,55.50
2023-02-16T05:04:14.975Z,56.35
2023-02-16T05:06:42.269Z,53.08
2023-02-16T05:09:09.937Z,55.40
2023-02-16T05:11:56.025Z,58.45
2023-02-16T05:14:47.049Z,58.55
2023-02-16T05:17:23.765Z,49.92
2023-02-16T05:19:56.663Z,55.13
2023-02-16T05:22:24.140Z,57.30
2023-02-16T05:24:51.387Z,56.00
2023-02-16T05:27:22.275Z,58.20
2023-02-16T05:29:49.782Z,60.67
2023-02-16T05:32:17.516Z,60.53
2023-02-16T05:34:47.138Z,52.10
2023-02-16T05:37:15.630Z,61.22
2023-02-16T05:39:42.500Z,62.70
2023-02-16T05:42:09.807Z,61.20
2023-02-16T05:44:37.861Z,53.40
2023-02-16T05:47:05.121Z,55.20
2023-02-16T05:49:31.990Z,60.22
2023-02-16T05:51:59.174Z,58.17
2023-02-16T05:54:26.163Z,54.60
2023-02-16T05:56:53.610Z,60.28
2023-02-16T05:59:20.942Z,51.60
2023-02-16T06:01:51.645Z,65.20
2023-02-16T06:04:20.239Z,64.60
2023-02-16T06:06:47.515Z,52.17
2023-02-16T06:09:14.415Z,55.53
2023-02-16T06:11:41.618Z,37.10
2023-02-16T06:14:08.952Z,57.80
2023-02-16T06:16:37.420Z,46.47
2023-02-16T06:19:05.485Z,48.65
2023-02-16T06:21:33.135Z,55.30
2023-02-16T06:23:59.990Z,63.08
2023-02-16T06:26:27.136Z,50.15
2023-02-16T06:28:55.141Z,46.33
2023-02-16T06:31:22.709Z,49.08
2023-02-16T06:33:49.953Z,58.00
2023-02-16T06:36:17.399Z,50.95
2023-02-16T06:38:44.700Z,55.60
2023-02-16T06:41:12.195Z,48.67
2023-02-16T06:43:39.493Z,55.20
2023-02-16T06:46:06.771Z,50.28
2023-02-16T06:48:33.725Z,55.78
2023-02-16T06:51:01.041Z,51.97
2023-02-16T06:53:28.226Z,52.50
2023-02-16T06:55:55.499Z,49.72
2023-02-16T06:58:22.816Z,49.50
2023-02-16T07:00:50.075Z,44.80
2023-02-16T07:03:17.331Z,59.28
2023-02-16T07:05:44.228Z,52.35
2023-02-16T07:08:11.434Z,56.47
2023-02-16T07:10:49.847Z,56.45
2023-02-16T07:13:17.756Z,53.10
2023-02-16T07:15:45.014Z,57.70
2023-02-16T07:18:12.234Z,54.75
2023-02-16T07:20:40.197Z,50.90
2023-02-16T07:23:07.069Z,57.88
2023-02-16T07:25:36.037Z,57.10
2023-02-16T07:28:04.060Z,54.40
2023-02-16T07:30:31.412Z,62.38
2023-02-16T07:32:58.710Z,58.83
2023-02-16T07:35:25.916Z,65.03
2023-02-16T07:37:52.800Z,58.05
2023-02-16T07:40:19.798Z,61.38
2023-02-16T07:42:46.768Z,56.72
2023-02-16T07:45:13.655Z,57.55
2023-02-16T07:47:40.904Z,59.72
2023-02-16T07:50:08.476Z,61.25
2023-02-16T07:52:35.394Z,50.72
2023-02-16T07:55:02.226Z,59.03
2023-02-16T07:57:30.036Z,52.47
2023-02-16T07:59:57.769Z,61.97
2023-02-16T08:02:24.879Z,59.92
2023-02-16T08:04:53.118Z,62.42
2023-02-16T08:07:20.472Z,66.70
2023-02-16T08:09:47.774Z,67.60
2023-02-16T08:12:16.272Z,62.92
2023-02-16T08:14:43.683Z,64.00
2023-02-16T08:17:10.624Z,59.20
2023-02-16T08:19:37.884Z,60.75
2023-02-16T08:22:06.459Z,67.75
2023-02-16T08:24:34.159Z,73.13
2023-02-16T08:27:03.948Z,58.13
2023-02-16T08:29:31.661Z,57.55
2023-02-16T08:31:58.765Z,72.50
2023-02-16T08:34:27.120Z,72.05
2023-02-16T08:36:56.668Z,62.83
2023-02-16T08:39:31.844Z,69.28
2023-02-16T08:42:00.296Z,66.93
2023-02-16T08:44:29.091Z,64.50
2023-02-16T08:46:59.379Z,71.05
2023-02-16T08:49:27.680Z,61.40
2023-02-16T08:51:57.474Z,74.05
2023-02-16T08:54:30.368Z,68.75
2023-02-16T08:56:59.800Z,69.82
2023-02-16T08:59:28.811Z,73.65
2023-02-16T09:01:58.265Z,67.20
2023-02-16T09:04:27.558Z,66.70
2023-02-16T09:06:56.242Z,66.22
2023-02-16T09:09:23.105Z,71.72
2023-02-16T09:11:50.656Z,66.32
2023-02-16T09:14:23.042Z,66.40
2023-02-16T09:16:50.054Z,69.45
2023-02-16T09:19:20.718Z,63.00
2023-02-16T09:21:50.706Z,68.95
2023-02-16T09:24:18.002Z,67.82
2023-02-16T09:26:45.362Z,65.00
2023-02-16T09:29:14.018Z,63.75
2023-02-16T09:31:42.353Z,70.00
2023-02-16T09:34:22.205Z,65.10
2023-02-16T09:36:50.209Z,71.72
2023-02-16T09:39:17.860Z,66.68
2023-02-16T09:41:59.669Z,65.57
2023-02-16T09:44:29.534Z,66.95
2023-02-16T09:47:01.550Z,67.22
2023-02-16T09:49:28.802Z,62.03
2023-02-16T09:52:27.909Z,76.45
2023-02-16T09:54:59.881Z,72.97
2023-02-16T09:57:48.788Z,69.55
2023-02-16T10:00:30.022Z,67.45
2023-02-16T10:03:21.717Z,71.00
2023-02-16T10:06:13.672Z,60.80
2023-02-16T10:09:08.771Z,63.55
2023-02-16T10:11:51.020Z,64.78
2023-02-16T10:14:45.796Z,59.40
2023-02-16T10:17:37.690Z,60.33
2023-02-16T10:20:18.658Z,62.53
2023-02-16T10:22:55.293Z,64.30
2023-02-16T10:25:29.480Z,62.50
2023-02-16T10:28:22.813Z,58.97
2023-02-16T10:33:45.216Z,65.95
2023-02-16T10:36:34.125Z,58.55
2023-02-16T10:39:22.998Z,56.92
2023-02-16T10:42:06.594Z,55.95
2023-02-16T10:44:45.974Z,59.97
2023-02-16T10:47:37.318Z,60.85
2023-02-16T10:50:07.177Z,59.88
2023-02-16T10:52:39.552Z,61.17
2023-02-16T10:55:07.098Z,61.88
2023-02-16T10:57:34.368Z,59.90
2023-02-16T11:00:10.447Z,57.00
2023-02-16T11:02:44.262Z,55.17
2023-02-16T11:05:26.511Z,57.50
2023-02-16T11:08:01.526Z,61.15
2023-02-16T11:10:48.908Z,60.65
2023-02-16T11:13:37.409Z,63.28
2023-02-16T11:16:13.903Z,66.07
2023-02-16T11:18:43.734Z,58.88
2023-02-16T11:21:12.325Z,60.83
2023-02-16T11:23:44.225Z,56.85
2023-02-16T11:26:11.807Z,62.13
2023-02-16T11:28:44.226Z,64.03
2023-02-16T11:31:24.952Z,67.78
2023-02-16T11:34:03.310Z,64.07
2023-02-16T11:36:37.709Z,65.30
2023-02-16T11:39:25.622Z,64.47
2023-02-16T11:42:08.197Z,67.65
2023-02-16T11:44:51.257Z,60.58
2023-02-16T11:47:39.668Z,70.45
2023-02-16T11:50:21.582Z,60.03
2023-02-16T11:52:51.890Z,67.38
2023-02-16T11:55:33.482Z,60.75
2023-02-16T11:58:20.295Z,65.20
2023-02-16T12:01:04.983Z,59.38
2023-02-16T12:03:33.653Z,67.15
2023-02-16T12:06:19.593Z,64.28
2023-02-16T12:09:09.811Z,72.03
2023-02-16T12:11:45.627Z,69.35
2023-02-16T12:14:33.667Z,73.03
2023-02-16T12:17:28.220Z,66.85
2023-02-16T12:22:44.694Z,69.40
2023-02-16T12:25:36.865Z,63.65
2023-02-16T12:28:16.147Z,64.63
2023-02-16T12:31:11.586Z,62.00
2023-02-16T12:33:57.401Z,62.53
2023-02-16T12:36:46.928Z,61.00
2023-02-16T12:39:13.804Z,61.42
2023-02-16T12:41:47.510Z,61.22
2023-02-16T12:44:42.873Z,73.97
2023-02-16T12:47:14.696Z,63.20
2023-02-16T12:49:54.063Z,61.65
2023-02-16T12:52:56.493Z,72.05
2023-02-16T12:55:23.702Z,60.45
2023-02-16T12:58:15.008Z,61.17
2023-02-16T13:00:48.874Z,67.63
2023-02-16T13:03:16.242Z,54.05
2023-02-16T13:05:45.640Z,63.20
2023-02-16T13:08:39.235Z,59.50
2023-02-16T13:13:49.925Z,62.00
2023-02-16T13:16:30.854Z,62.90
2023-02-16T13:18:58.703Z,73.30
2023-02-16T13:21:56.847Z,66.18
2023-02-16T13:24:32.470Z,55.17
2023-02-16T13:27:31.393Z,63.47
2023-02-16T13:30:22.985Z,55.90
2023-02-16T13:33:22.997Z,68.45
2023-02-16T13:35:53.159Z,65.60
2023-02-16T13:38:23.058Z,68.95
2023-02-16T13:41:09.524Z,68.45
2023-02-16T13:43:47.961Z,68.50
2023-02-16T13:46:25.202Z,66.00
2023-02-16T13:48:55.569Z,64.68
2023-02-16T13:51:25.688Z,66.72
2023-02-16T13:53:57.025Z,65.40
2023-02-16T13:56:24.199Z,62.20
2023-02-16T13:58:53.351Z,67.63
2023-02-16T14:01:32.004Z,73.05
2023-02-16T14:04:01.526Z,60.38
2023-02-16T14:06:32.553Z,63.65
2023-02-16T14:09:14.599Z,64.07
2023-02-16T14:11:53.595Z,62.17
2023-02-16T14:14:31.454Z,70.15
2023-02-16T14:17:16.754Z,64.45
2023-02-16T14:20:05.320Z,65.32
2023-02-16T14:22:43.660Z,63.05
2023-02-16T14:25:22.591Z,64.22
2023-02-16T14:28:26.944Z,67.32
2023-02-16T14:30:56.134Z,63.47
2023-02-16T14:33:40.870Z,68.00
2023-02-16T14:36:19.722Z,66.82
2023-02-16T14:38:52.078Z,68.55
2023-02-16T14:41:32.499Z,71.18
2023-02-16T14:43:59.800Z,61.38
2023-02-16T14:47:00.955Z,68.55
2023-02-16T14:49:58.229Z,68.10
2023-02-16T14:52:49.806Z,69.35
2023-02-16T14:55:38.220Z,74.15
2023-02-16T14:58:38.127Z,69.72
2023-02-16T15:01:13.955Z,68.35
2023-02-16T15:03:41.540Z,72.22
2023-02-16T15:06:35.204Z,73.40
2023-02-16T15:15:01.572Z,68.90
2023-02-16T15:17:44.981Z,68.47
2023-02-16T15:22:56.088Z,77.13
2023-02-16T15:25:24.975Z,83.85
2023-02-16T15:28:00.957Z,78.65
2023-02-16T15:30:30.401Z,82.05
2023-02-16T15:33:27.991Z,88.15
2023-02-16T15:36:04.966Z,72.32
2023-02-16T15:38:38.173Z,84.10
2023-02-16T15:41:26.431Z,83.18
2023-02-16T15:43:53.363Z,72.60
2023-02-16T15:46:31.673Z,68.35
2023-02-16T15:49:00.075Z,60.28
2023-02-16T15:51:31.701Z,71.97
2023-02-16T15:54:08.045Z,74.43
2023-02-16T15:56:49.139Z,57.30
2023-02-16T15:59:35.876Z,60.15
2023-02-16T16:02:18.702Z,58.78
2023-02-16T16:04:56.805Z,53.95
2023-02-16T16:07:29.918Z,54.15
2023-02-16T16:09:57.827Z,55.45
2023-02-16T16:12:26.431Z,56.90
2023-02-16T16:14:58.727Z,53.08
2023-02-16T16:17:33.992Z,51.77
2023-02-16T16:20:24.234Z,52.42
2023-02-16T16:23:05.821Z,50.38
2023-02-16T16:25:51.422Z,52.58
2023-02-16T16:28:27.279Z,52.13
2023-02-16T16:31:10.516Z,47.38
2023-02-16T16:33:59.922Z,53.03
2023-02-16T16:36:35.220Z,46.83
2023-02-16T16:39:10.508Z,53.78
2023-02-16T16:41:40.246Z,48.72
2023-02-16T16:44:12.367Z,51.38
2023-02-16T16:46:39.469Z,47.72
2023-02-16T16:49:15.851Z,55.65
2023-02-16T16:51:43.704Z,58.55
2023-02-16T16:54:32.859Z,55.15
2023-02-16T16:57:03.112Z,54.28
2023-02-16T16:59:30.393Z,58.90
2023-02-16T17:01:57.792Z,65.22
2023-02-16T17:04:26.621Z,72.15
2023-02-16T17:06:53.999Z,71.60
2023-02-16T17:09:21.491Z,74.47
2023-02-16T17:11:48.290Z,72.10
2023-02-16T17:14:18.068Z,59.10
2023-02-16T17:16:52.861Z,56.80
2023-02-16T17:19:22.498Z,57.78
2023-02-16T17:21:49.939Z,56.72
2023-02-16T17:24:17.613Z,58.97
2023-02-16T17:26:44.908Z,68.18
2023-02-16T17:29:12.227Z,57.40
2023-02-16T17:31:39.655Z,57.65
2023-02-16T17:34:06.970Z,51.30
2023-02-16T17:36:34.567Z,55.45
2023-02-16T17:39:02.113Z,53.42
2023-02-16T17:41:30.008Z,57.97
2023-02-16T17:43:57.309Z,60.53
2023-02-16T17:46:26.831Z,56.85
2023-02-16T17:48:55.388Z,62.72
2023-02-16T17:51:24.912Z,54.58
2023-02-16T17:53:55.691Z,64.28
2023-02-16T17:56:23.922Z,66.57
2023-02-16T17:58:53.826Z,63.67
2023-02-16T18:01:21.657Z,69.45
2023-02-16T18:03:49.104Z,71.93
2023-02-16T18:06:21.698Z,82.63
2023-02-16T18:08:48.912Z,78.80
2023-02-16T18:11:16.436Z,86.78
2023-02-16T18:13:43.812Z,82.22
2023-02-16T18:16:21.595Z,73.90
2023-02-16T18:18:48.881Z,79.25
2023-02-16T18:21:18.749Z,73.10
2023-02-16T18:23:46.408Z,75.63
2023-02-16T18:26:15.299Z,65.15
2023-02-16T18:28:42.641Z,68.18
2023-02-16T18:31:10.461Z,69.60
2023-02-16T18:33:37.866Z,66.80
2023-02-16T18:36:05.246Z,70.07
2023-02-16T18:38:32.972Z,73.95
2023-02-16T18:40:59.876Z,69.28
2023-02-16T18:43:27.251Z,68.60
2023-02-16T18:45:54.496Z,74.40
2023-02-16T18:48:21.863Z,71.95
2023-02-16T18:50:49.115Z,70.18
2023-02-16T18:53:16.391Z,69.15
2023-02-16T18:55:43.598Z,70.00
2023-02-16T18:58:13.326Z,69.65
2023-02-16T19:00:40.405Z,65.57
2023-02-16T19:03:07.848Z,69.03
2023-02-16T19:05:35.203Z,66.38
2023-02-16T19:08:02.515Z,60.50
2023-02-16T19:10:30.124Z,69.30
2023-02-16T19:12:57.332Z,67.43
2023-02-16T19:15:25.134Z,68.00
2023-02-16T19:17:52.438Z,68.90
2023-02-16T19:20:19.796Z,68.78
2023-02-16T19:22:47.653Z,67.20
2023-02-16T19:25:15.489Z,67.30
2023-02-16T19:27:43.498Z,69.72
2023-02-16T19:30:10.909Z,64.80
2023-02-16T19:32:41.003Z,67.93
2023-02-16T19:35:12.531Z,69.55
2023-02-16T19:37:39.704Z,65.35
2023-02-16T19:40:09.315Z,69.05
2023-02-16T19:42:39.671Z,73.28
2023-02-16T19:45:07.129Z,72.30
2023-02-16T19:47:34.418Z,71.28
2023-02-16T19:50:01.666Z,69.22
2023-02-16T19:52:31.430Z,76.25
2023-02-16T19:54:58.325Z,75.45
2023-02-16T19:57:25.858Z,66.25
2023-02-16T19:59:52.790Z,74.05
2023-02-16T20:02:19.755Z,66.03
2023-02-16T20:04:47.039Z,66.70
2023-02-16T20:07:14.250Z,65.30
2023-02-16T20:09:41.799Z,67.32
2023-02-16T20:12:09.222Z,67.32
2023-02-16T20:14:43.801Z,67.45
2023-02-16T20:17:10.686Z,65.97
2023-02-16T20:19:37.896Z,63.00
2023-02-16T20:22:04.766Z,69.68
2023-02-16T20:24:31.976Z,69.05
2023-02-16T20:27:04.297Z,61.83
2023-02-16T20:29:32.109Z,65.25
2023-02-16T20:31:59.064Z,74.20
2023-02-16T20:34:27.765Z,62.05
2023-02-16T20:36:55.509Z,63.88
2023-02-16T20:39:22.871Z,65.72
2023-02-16T20:41:51.056Z,75.63
2023-02-16T20:44:18.295Z,71.55
2023-02-16T20:46:45.289Z,73.00
2023-02-16T20:49:14.693Z,78.32
2023-02-16T20:51:41.607Z,76.50
2023-02-16T20:54:08.704Z,80.00
2023-02-16T20:56:35.951Z,77.70
2023-02-16T20:59:03.183Z,76.75
2023-02-16T21:01:39.959Z,71.03
2023-02-16T21:04:08.754Z,64.45
2023-02-16T21:06:36.720Z,85.25
2023-02-16T21:09:07.778Z,70.68
2023-02-16T21:11:35.123Z,63.92
2023-02-16T21:14:03.245Z,61.80
2023-02-16T21:16:30.739Z,65.25
2023-02-16T21:18:58.164Z,65.00
2023-02-16T21:21:28.213Z,75.00
2023-02-16T21:23:55.797Z,66.13
2023-02-16T21:26:24.646Z,70.97
2023-02-16T21:28:52.574Z,65.95
2023-02-16T21:31:23.539Z,69.15
2023-02-16T21:33:51.572Z,74.00
2023-02-16T21:36:21.863Z,67.50
2023-02-16T21:38:49.235Z,83.00
2023-02-16T21:41:25.568Z,65.10
2023-02-16T21:43:53.405Z,68.43
2023-02-16T21:46:22.609Z,60.85
2023-02-16T21:48:53.209Z,65.50
2023-02-16T21:51:24.287Z,65.78
2023-02-16T21:53:51.718Z,58.55
2023-02-16T21:56:33.883Z,60.08
2023-02-16T21:59:01.495Z,69.95
2023-02-16T22:01:56.482Z,65.85
2023-02-16T22:04:23.516Z,61.60
2023-02-16T22:06:51.378Z,64.03
2023-02-16T22:09:21.579Z,69.85
2023-02-16T22:11:49.444Z,67.65
2023-02-16T22:14:16.729Z,71.85
2023-02-16T22:16:45.439Z,71.85
2023-02-16T22:19:14.096Z,71.13
2023-02-16T22:21:42.362Z,68.03
2023-02-16T22:24:12.617Z,70.80
2023-02-16T22:26:39.892Z,72.07
2023-02-16T22:29:07.881Z,76.70
2023-02-16T22:31:35.787Z,65.13
2023-02-16T22:34:08.614Z,66.25
2023-02-16T22:36:37.438Z,66.75
2023-02-16T22:39:04.641Z,71.10
2023-02-16T22:41:31.925Z,65.60
2023-02-16T22:44:02.299Z,72.20
2023-02-16T22:46:30.152Z,63.85
2023-02-16T22:48:58.839Z,73.00
2023-02-16T22:51:29.457Z,78.90
2023-02-16T22:53:58.747Z,64.35
2023-02-16T22:56:27.012Z,66.03
2023-02-16T22:58:57.527Z,65.45
2023-02-16T23:01:26.464Z,70.82
2023-02-16T23:03:57.624Z,66.80
2023-02-16T23:06:31.140Z,65.97
2023-02-16T23:09:00.684Z,65.95
2023-02-16T23:11:28.068Z,68.57
2023-02-16T23:13:55.081Z,54.58
2023-02-16T23:16:24.270Z,66.78
2023-02-16T23:18:51.586Z,65.35
2023-02-16T23:21:19.730Z,65.28
2023-02-16T23:23:47.614Z,68.45
2023-02-16T23:26:14.863Z,64.47
2023-02-16T23:28:43.322Z,71.90
2023-02-16T23:31:12.682Z,62.40
2023-02-16T23:33:40.166Z,69.60
2023-02-16T23:36:07.719Z,63.42
2023-02-16T23:38:35.074Z,68.72
2023-02-16T23:41:09.422Z,67.25
2023-02-16T23:43:36.980Z,69.55
2023-02-16T23:46:05.705Z,71.15
2023-02-16T23:48:32.709Z,68.50
2023-02-16T23:51:00.125Z,67.75
2023-02-16T23:53:28.404Z,70.55
2023-02-16T23:56:07.991Z,67.13
2023-02-16T23:58:37.661Z,69.25
